createdAt,value
2023-11-01T00:00:07.057Z,5.53
2023-11-01T00:02:42.077Z,5.45
2023-11-01T00:05:12.599Z,5.10
2023-11-01T00:07:41.911Z,4.78
2023-11-01T00:10:11.244Z,5.00
2023-11-01T00:12:40.370Z,5.33
2023-11-01T00:15:11.245Z,4.95
2023-11-01T00:17:40.836Z,4.90
2023-11-01T00:20:10.787Z,5.00
2023-11-01T00:22:39.523Z,4.95
2023-11-01T00:25:09.803Z,5.00
2023-11-01T00:27:39.287Z,5.00
2023-11-01T00:30:09.662Z,5.17
2023-11-01T00:32:40.392Z,4.20
2023-11-01T00:35:09.662Z,4.78
2023-11-01T00:37:38.657Z,4.55
2023-11-01T00:40:08.937Z,4.67
2023-11-01T00:42:38.242Z,4.60
2023-11-01T00:45:08.118Z,4.72
2023-11-01T00:47:37.063Z,4.62
2023-11-01T00:50:07.402Z,4.90
2023-11-01T00:52:36.462Z,4.70
2023-11-01T00:55:06.222Z,4.90
2023-11-01T00:57:35.192Z,4.42
2023-11-01T01:00:06.706Z,4.50
2023-11-01T01:02:36.519Z,4.95
2023-11-01T01:05:07.969Z,4.80
2023-11-01T01:07:40.268Z,4.87
2023-11-01T01:10:12.671Z,5.03
2023-11-01T01:12:41.830Z,5.08
2023-11-01T01:15:11.672Z,5.15
2023-11-01T01:17:40.922Z,4.58
2023-11-01T01:20:11.771Z,5.03
2023-11-01T01:22:41.150Z,5.12
2023-11-01T01:25:10.112Z,5.10
2023-11-01T01:27:41.955Z,5.00
2023-11-01T01:30:12.559Z,5.33
2023-11-01T01:32:41.754Z,4.97
2023-11-01T01:35:14.025Z,4.83
2023-11-01T01:37:43.166Z,5.15
2023-11-01T01:40:13.001Z,4.80
2023-11-01T01:42:42.497Z,5.87
2023-11-01T01:45:11.830Z,4.78
2023-11-01T01:47:40.737Z,5.08
2023-11-01T01:50:10.655Z,5.05
2023-11-01T01:52:40.499Z,4.92
2023-11-01T01:55:11.605Z,5.22
2023-11-01T01:57:42.207Z,4.90
2023-11-01T02:00:12.921Z,5.08
2023-11-01T02:02:43.158Z,4.75
2023-11-01T02:05:12.069Z,4.42
2023-11-01T02:07:40.516Z,5.15
2023-11-01T02:10:12.307Z,5.58
2023-11-01T02:12:42.105Z,5.22
2023-11-01T02:15:11.237Z,5.28
2023-11-01T02:17:40.400Z,4.97
2023-11-01T02:20:10.089Z,5.92
2023-11-01T02:22:39.608Z,5.40
2023-11-01T02:25:08.924Z,6.03
2023-11-01T02:27:37.904Z,5.58
2023-11-01T02:30:08.183Z,5.42
2023-11-01T02:32:36.994Z,5.72
2023-11-01T02:35:07.197Z,5.55
2023-11-01T02:37:36.146Z,6.08
2023-11-01T02:40:06.962Z,5.67
2023-11-01T02:42:35.903Z,6.03
2023-11-01T02:45:05.378Z,6.08
2023-11-01T02:47:34.635Z,6.47
2023-11-01T02:50:08.720Z,6.17
2023-11-01T02:52:41.404Z,6.42
2023-11-01T02:55:11.346Z,6.67
2023-11-01T02:57:40.320Z,6.10
2023-11-01T03:00:12.244Z,6.45
2023-11-01T03:02:41.408Z,6.87
2023-11-01T03:05:10.794Z,6.90
2023-11-01T03:07:40.999Z,7.08
2023-11-01T03:10:11.781Z,6.53
2023-11-01T03:12:41.034Z,6.58
2023-11-01T03:15:10.751Z,6.33
2023-11-01T03:17:39.887Z,6.45
2023-11-01T03:20:09.457Z,6.30
2023-11-01T03:22:38.243Z,7.10
2023-11-01T03:25:09.438Z,6.97
2023-11-01T03:27:38.710Z,6.70
2023-11-01T03:30:10.663Z,6.65
2023-11-01T03:32:39.618Z,7.42
2023-11-01T03:35:09.345Z,7.03
2023-11-01T03:37:38.451Z,7.53
2023-11-01T03:40:09.351Z,7.60
2023-11-01T03:42:38.990Z,7.15
2023-11-01T03:45:09.903Z,7.08
2023-11-01T03:47:40.115Z,6.95
2023-11-01T03:50:10.050Z,6.72
2023-11-01T03:52:38.958Z,7.00
2023-11-01T03:55:10.502Z,7.35
2023-11-01T03:57:39.800Z,7.28
2023-11-01T04:00:10.580Z,7.42
2023-11-01T04:02:40.925Z,7.42
2023-11-01T04:05:10.276Z,8.13
2023-11-01T04:07:40.083Z,7.00
2023-11-01T04:10:11.011Z,7.70
2023-11-01T04:12:39.508Z,7.45
2023-11-01T04:15:11.956Z,8.03
2023-11-01T04:17:40.866Z,7.40
2023-11-01T04:20:10.711Z,8.10
2023-11-01T04:22:40.025Z,7.65
2023-11-01T04:25:11.896Z,8.85
2023-11-01T04:27:41.725Z,8.83
2023-11-01T04:30:11.891Z,9.03
2023-11-01T04:32:41.769Z,9.08
2023-11-01T04:35:12.151Z,8.65
2023-11-01T04:37:40.734Z,9.08
2023-11-01T04:40:14.256Z,9.25
2023-11-01T04:42:45.358Z,9.58
2023-11-01T04:45:13.964Z,9.43
2023-11-01T04:47:44.795Z,8.83
2023-11-01T04:50:16.352Z,9.08
2023-11-01T04:52:45.162Z,8.80
2023-11-01T04:55:14.866Z,9.40
2023-11-01T04:57:44.120Z,9.45
2023-11-01T05:00:17.916Z,9.50
2023-11-01T05:02:47.226Z,8.75
2023-11-01T05:05:16.137Z,9.23
2023-11-01T05:07:45.357Z,9.55
2023-11-01T05:10:14.429Z,28.42
2023-11-01T05:12:43.357Z,10.23
2023-11-01T05:15:12.224Z,9.68
2023-11-01T05:17:41.395Z,9.85
2023-11-01T05:20:12.307Z,10.15
2023-11-01T05:22:42.721Z,9.60
2023-11-01T05:25:13.632Z,9.45
2023-11-01T05:27:43.905Z,10.13
2023-11-01T05:30:16.413Z,10.25
2023-11-01T05:32:46.967Z,8.93
2023-11-01T05:35:16.381Z,9.43
2023-11-01T05:37:45.620Z,9.40
2023-11-01T05:40:14.919Z,9.23
2023-11-01T05:42:45.201Z,9.88
2023-11-01T05:45:17.858Z,9.23
2023-11-01T05:47:51.242Z,9.85
2023-11-01T05:50:27.160Z,11.20
2023-11-01T05:52:58.087Z,9.68
2023-11-01T05:55:37.941Z,9.60
2023-11-01T05:57:58.943Z,9.55
2023-11-01T06:00:27.980Z,8.98
2023-11-01T06:02:57.719Z,9.43
2023-11-01T06:05:28.607Z,8.80
2023-11-01T06:07:57.607Z,10.20
2023-11-01T06:10:26.433Z,9.90
2023-11-01T06:12:56.083Z,10.65
2023-11-01T06:15:25.442Z,10.28
2023-11-01T06:17:54.291Z,9.83
2023-11-01T06:20:23.537Z,11.12
2023-11-01T06:22:52.422Z,10.58
2023-11-01T06:25:21.455Z,9.60
2023-11-01T06:27:50.671Z,9.15
2023-11-01T06:30:19.906Z,9.20
2023-11-01T06:32:48.990Z,9.13
2023-11-01T06:35:18.074Z,9.23
2023-11-01T06:37:49.640Z,9.13
2023-11-01T06:40:18.636Z,9.58
2023-11-01T06:42:47.501Z,8.68
2023-11-01T06:45:16.600Z,9.48
2023-11-01T06:47:45.405Z,9.10
2023-11-01T06:50:14.608Z,9.40
2023-11-01T06:52:45.261Z,10.40
2023-11-01T06:55:14.451Z,9.83
2023-11-01T06:57:43.727Z,9.00
2023-11-01T07:00:14.980Z,8.85
2023-11-01T07:02:44.538Z,8.93
2023-11-01T07:05:13.526Z,9.38
2023-11-01T07:07:42.623Z,9.35
2023-11-01T07:10:12.120Z,8.48
2023-11-01T07:12:41.660Z,9.33
2023-11-01T07:15:12.420Z,9.00
2023-11-01T07:17:43.058Z,8.65
2023-11-01T07:20:13.520Z,9.88
2023-11-01T07:22:42.708Z,8.80
2023-11-01T07:25:12.097Z,9.18
2023-11-01T07:27:41.083Z,9.40
2023-11-01T07:30:10.747Z,9.58
2023-11-01T07:32:39.739Z,8.40
2023-11-01T07:35:09.293Z,9.38
2023-11-01T07:37:39.209Z,8.18
2023-11-01T07:40:10.911Z,9.08
2023-11-01T07:42:41.412Z,9.63
2023-11-01T07:45:11.629Z,8.68
2023-11-01T07:47:42.410Z,9.30
2023-11-01T07:50:13.661Z,10.15
2023-11-01T07:52:44.267Z,10.15
2023-11-01T07:55:13.757Z,9.60
2023-11-01T07:57:42.851Z,9.23
2023-11-01T08:00:14.278Z,9.45
2023-11-01T08:02:43.185Z,9.58
2023-11-01T08:05:12.802Z,8.93
2023-11-01T08:07:42.515Z,8.53
2023-11-01T08:10:12.223Z,7.90
2023-11-01T08:12:41.685Z,7.08
2023-11-01T08:15:12.827Z,6.85
2023-11-01T08:17:41.804Z,6.50
2023-11-01T08:20:16.272Z,6.33
2023-11-01T08:22:45.187Z,6.70
2023-11-01T08:25:14.081Z,7.90
2023-11-01T08:27:44.420Z,7.65
2023-11-01T08:30:13.965Z,7.35
2023-11-01T08:32:42.841Z,7.05
2023-11-01T08:35:11.847Z,7.03
2023-11-01T08:37:40.884Z,7.60
2023-11-01T08:40:11.559Z,8.40
2023-11-01T08:42:40.534Z,8.98
2023-11-01T08:45:10.662Z,8.85
2023-11-01T08:47:45.570Z,7.83
2023-11-01T08:50:15.941Z,7.58
2023-11-01T08:52:45.333Z,7.03
2023-11-01T08:55:15.446Z,8.80
2023-11-01T08:57:46.909Z,8.40
2023-11-01T09:00:21.569Z,7.17
2023-11-01T09:02:50.230Z,6.90
2023-11-01T09:05:19.926Z,5.55
2023-11-01T09:07:51.441Z,6.30
2023-11-01T09:10:19.962Z,7.12
2023-11-01T09:12:48.961Z,6.78
2023-11-01T09:15:17.792Z,6.10
2023-11-01T09:17:46.548Z,6.75
2023-11-01T09:20:16.129Z,6.85
2023-11-01T09:22:46.546Z,6.25
2023-11-01T09:25:16.186Z,5.53
2023-11-01T09:27:45.166Z,5.15
2023-11-01T09:30:16.403Z,5.97
2023-11-01T09:32:45.575Z,7.20
2023-11-01T09:35:16.177Z,6.97
2023-11-01T09:37:45.569Z,6.70
2023-11-01T09:40:14.680Z,6.97
2023-11-01T09:42:44.617Z,7.80
2023-11-01T09:45:13.929Z,6.70
2023-11-01T09:47:43.512Z,6.95
2023-11-01T09:50:14.222Z,8.38
2023-11-01T09:52:44.757Z,7.70
2023-11-01T09:55:16.872Z,6.87
2023-11-01T09:57:46.582Z,8.45
2023-11-01T10:00:16.546Z,8.95
2023-11-01T10:02:45.566Z,6.72
2023-11-01T10:05:15.050Z,7.40
2023-11-01T10:07:44.330Z,6.30
2023-11-01T10:10:19.005Z,6.15
2023-11-01T10:12:48.297Z,4.85
2023-11-01T10:15:22.718Z,6.12
2023-11-01T10:17:53.290Z,5.42
2023-11-01T10:20:28.210Z,5.55
2023-11-01T10:22:58.989Z,5.72
2023-11-01T10:25:29.955Z,5.42
2023-11-01T10:27:59.530Z,5.05
2023-11-01T10:30:28.982Z,7.22
2023-11-01T10:32:59.718Z,8.60
2023-11-01T10:35:30.537Z,8.13
2023-11-01T10:38:01.488Z,7.65
2023-11-01T10:40:31.272Z,8.00
2023-11-01T10:43:06.527Z,6.83
2023-11-01T10:45:36.199Z,6.33
2023-11-01T10:48:07.069Z,8.33
2023-11-01T10:50:36.237Z,7.78
2023-11-01T10:53:05.435Z,8.35
2023-11-01T10:55:34.491Z,4.55
2023-11-01T10:58:03.892Z,3.90
2023-11-01T11:00:47.879Z,3.77
2023-11-01T11:04:08.516Z,3.90
2023-11-01T11:06:45.748Z,6.50
2023-11-01T11:12:22.294Z,5.03
2023-11-01T11:14:52.252Z,5.03
2023-11-01T11:17:25.121Z,5.10
2023-11-01T11:20:13.814Z,5.47
2023-11-01T11:23:10.024Z,6.50
2023-11-01T11:25:45.935Z,4.97
2023-11-01T11:28:40.552Z,6.15
2023-11-01T11:31:18.927Z,5.85
2023-11-01T11:33:53.373Z,7.40
2023-11-01T11:36:25.884Z,6.72
2023-11-01T11:38:59.978Z,6.58
2023-11-01T11:41:32.144Z,6.30
2023-11-01T11:44:14.242Z,6.47
2023-11-01T11:46:46.401Z,6.50
2023-11-01T11:49:24.991Z,6.87
2023-11-01T11:52:04.787Z,7.83
2023-11-01T11:54:38.549Z,7.60
2023-11-01T11:57:12.045Z,8.33
2023-11-01T11:59:43.282Z,8.20
2023-11-01T12:02:13.554Z,8.65
2023-11-01T12:04:44.303Z,10.15
2023-11-01T12:07:19.857Z,7.78
2023-11-01T12:09:50.169Z,8.87
2023-11-01T12:12:19.523Z,9.13
2023-11-01T12:14:58.442Z,7.78
2023-11-01T12:17:28.517Z,8.70
2023-11-01T12:19:57.517Z,9.70
2023-11-01T12:22:26.619Z,9.53
2023-11-01T12:24:56.945Z,10.30
2023-11-01T12:27:32.854Z,9.38
2023-11-01T12:30:03.694Z,9.95
2023-11-01T12:32:35.697Z,10.18
2023-11-01T12:35:06.664Z,9.68
2023-11-01T12:37:37.054Z,8.75
2023-11-01T12:40:15.231Z,9.95
2023-11-01T12:42:51.461Z,8.75
2023-11-01T12:45:21.857Z,7.87
2023-11-01T12:47:56.985Z,4.87
2023-11-01T12:50:34.190Z,2.87
2023-11-01T12:55:32.861Z,1.60
2023-11-01T12:58:02.977Z,2.10
2023-11-01T13:00:33.158Z,1.60
2023-11-01T13:03:03.323Z,1.90
2023-11-01T13:05:32.733Z,1.80
2023-11-01T13:08:03.022Z,1.90
2023-11-01T13:10:32.444Z,2.33
2023-11-01T13:13:03.196Z,2.80
2023-11-01T13:15:33.174Z,2.80
2023-11-01T13:18:02.364Z,3.30
2023-11-01T13:20:31.452Z,2.80
2023-11-01T13:23:00.548Z,3.58
2023-11-01T13:25:30.403Z,2.90
2023-11-01T13:27:59.301Z,3.60
2023-11-01T13:30:28.693Z,3.85
2023-11-01T13:32:57.847Z,3.65
2023-11-01T13:35:26.784Z,3.70
2023-11-01T13:37:56.305Z,3.42
2023-11-01T13:40:25.890Z,4.03
2023-11-01T13:42:57.777Z,4.78
2023-11-01T13:45:28.351Z,4.78
2023-11-01T13:47:57.848Z,5.28
2023-11-01T13:50:27.531Z,4.72
2023-11-01T13:52:56.910Z,4.25
2023-11-01T13:55:31.243Z,4.10
2023-11-01T13:57:59.080Z,4.00
2023-11-01T14:00:28.535Z,3.17
2023-11-01T14:03:01.027Z,3.47
2023-11-01T14:05:31.586Z,3.95
2023-11-01T14:08:00.819Z,4.30
2023-11-01T14:10:31.898Z,3.40
2023-11-01T14:13:03.971Z,4.05
2023-11-01T14:15:34.559Z,4.22
2023-11-01T14:18:05.756Z,3.80
2023-11-01T14:20:36.574Z,5.33
2023-11-01T14:23:06.548Z,4.50
2023-11-01T14:25:36.102Z,4.78
2023-11-01T14:28:06.584Z,4.85
2023-11-01T14:30:35.895Z,5.22
2023-11-01T14:33:07.127Z,4.95
2023-11-01T14:35:37.303Z,4.37
2023-11-01T14:38:06.866Z,4.10
2023-11-01T14:40:35.822Z,3.90
2023-11-01T14:43:05.227Z,4.53
2023-11-01T14:45:35.118Z,4.40
2023-11-01T14:48:09.398Z,4.53
2023-11-01T14:50:38.621Z,4.70
2023-11-01T14:53:08.947Z,5.05
2023-11-01T14:55:38.139Z,4.95
2023-11-01T14:58:08.581Z,5.40
2023-11-01T15:00:37.779Z,5.50
2023-11-01T15:03:06.975Z,4.95
2023-11-01T15:05:36.392Z,4.87
2023-11-01T15:08:06.015Z,5.60
2023-11-01T15:10:35.125Z,5.37
2023-11-01T15:13:05.022Z,5.08
2023-11-01T15:15:33.813Z,5.10
2023-11-01T15:18:02.870Z,5.20
2023-11-01T15:20:32.507Z,5.50
2023-11-01T15:23:01.769Z,6.50
2023-11-01T15:25:31.133Z,7.10
2023-11-01T15:27:59.893Z,6.90
2023-11-01T15:30:30.486Z,6.05
2023-11-01T15:32:59.898Z,5.60
2023-11-01T15:35:29.781Z,5.25
2023-11-01T15:37:59.132Z,5.20
2023-11-01T15:40:28.675Z,4.87
2023-11-01T15:42:57.663Z,5.17
2023-11-01T15:45:26.509Z,5.17
2023-11-01T15:47:55.763Z,5.50
2023-11-01T15:50:24.976Z,4.97
2023-11-01T15:52:54.439Z,4.80
2023-11-01T15:55:24.074Z,4.28
2023-11-01T15:57:52.886Z,4.40
2023-11-01T16:00:22.153Z,4.20
2023-11-01T16:02:51.423Z,4.80
2023-11-01T16:05:21.035Z,4.80
2023-11-01T16:07:51.782Z,5.17
2023-11-01T16:10:20.481Z,5.20
2023-11-01T16:12:49.694Z,5.53
2023-11-01T16:15:18.729Z,5.10
2023-11-01T16:17:47.784Z,5.42
2023-11-01T16:20:20.685Z,5.03
2023-11-01T16:22:50.319Z,4.20
2023-11-01T16:25:20.332Z,3.87
2023-11-01T16:27:50.052Z,4.00
2023-11-01T16:30:19.743Z,3.90
2023-11-01T16:32:56.129Z,3.40
2023-11-01T16:35:24.357Z,3.55
2023-11-01T16:37:54.161Z,3.25
2023-11-01T16:40:23.113Z,3.00
2023-11-01T16:42:53.240Z,2.72
2023-11-01T16:45:23.650Z,3.37
2023-11-01T16:47:54.550Z,3.05
2023-11-01T16:50:24.688Z,3.40
2023-11-01T16:52:54.902Z,2.90
2023-11-01T16:55:23.910Z,3.55
2023-11-01T16:57:53.112Z,3.40
2023-11-01T17:00:22.070Z,3.60
2023-11-01T17:02:51.346Z,3.58
2023-11-01T17:05:20.798Z,3.50
2023-11-01T17:07:49.584Z,4.45
2023-11-01T17:10:18.452Z,4.55
2023-11-01T17:12:48.305Z,4.45
2023-11-01T17:15:24.073Z,4.15
2023-11-01T17:17:56.975Z,3.70
2023-11-01T17:20:26.024Z,4.05
2023-11-01T17:22:58.150Z,4.30
2023-11-01T17:25:50.662Z,4.00
2023-11-01T17:28:34.602Z,3.80
2023-11-01T17:31:07.998Z,4.35
2023-11-01T17:33:40.614Z,5.03
2023-11-01T17:36:27.028Z,5.08
2023-11-01T17:39:02.103Z,5.35
2023-11-01T17:41:53.997Z,5.28
2023-11-01T17:44:25.213Z,4.85
2023-11-01T17:47:02.396Z,4.20
2023-11-01T17:49:52.268Z,4.95
2023-11-01T17:52:36.890Z,4.65
2023-11-01T17:55:13.613Z,4.72
2023-11-01T17:57:45.590Z,3.90
2023-11-01T18:00:16.131Z,3.87
2023-11-01T18:03:09.525Z,3.52
2023-11-01T18:05:40.622Z,3.72
2023-11-01T18:08:14.630Z,3.30
2023-11-01T18:10:50.751Z,3.70
2023-11-01T18:13:32.036Z,3.70
2023-11-01T18:16:03.509Z,3.65
2023-11-01T18:18:51.413Z,4.10
2023-11-01T18:21:31.134Z,4.25
2023-11-01T18:24:02.571Z,3.95
2023-11-01T18:26:32.993Z,4.53
2023-11-01T18:29:05.970Z,4.53
2023-11-01T18:31:44.440Z,4.70
2023-11-01T18:34:14.253Z,4.40
2023-11-01T18:36:47.474Z,4.10
2023-11-01T18:39:22.715Z,4.65
2023-11-01T18:41:56.007Z,5.22
2023-11-01T18:44:40.402Z,5.33
2023-11-01T18:47:09.502Z,4.80
2023-11-01T18:50:07.887Z,4.50
2023-11-01T18:52:39.101Z,4.40
2023-11-01T18:55:11.110Z,4.67
2023-11-01T18:57:42.256Z,4.40
2023-11-01T19:00:14.025Z,4.10
2023-11-01T19:03:07.649Z,3.92
2023-11-01T19:05:38.983Z,4.72
2023-11-01T19:08:08.025Z,6.25
2023-11-01T19:10:37.849Z,5.20
2023-11-01T19:13:07.841Z,5.00
2023-11-01T19:15:42.330Z,5.00
2023-11-01T19:18:15.919Z,4.95
2023-11-01T19:20:46.704Z,5.03
2023-11-01T19:23:16.922Z,4.50
2023-11-01T19:25:46.552Z,3.95
2023-11-01T19:28:17.667Z,4.20
2023-11-01T19:30:48.332Z,3.92
2023-11-01T19:33:26.352Z,4.22
2023-11-01T19:35:54.083Z,4.30
2023-11-01T19:38:23.430Z,3.60
2023-11-01T19:40:53.084Z,3.87
2023-11-01T19:43:25.966Z,3.62
2023-11-01T19:45:56.079Z,4.03
2023-11-01T19:48:29.186Z,3.85
2023-11-01T19:50:59.926Z,3.58
2023-11-01T19:53:28.831Z,3.50
2023-11-01T19:55:57.931Z,3.22
2023-11-01T19:58:27.431Z,4.00
2023-11-01T20:00:56.541Z,3.52
2023-11-01T20:03:25.900Z,3.62
2023-11-01T20:05:55.010Z,3.83
2023-11-01T20:08:25.355Z,3.35
2023-11-01T20:10:54.292Z,3.87
2023-11-01T20:13:23.686Z,3.62
2023-11-01T20:15:52.791Z,3.37
2023-11-01T20:18:23.431Z,3.00
2023-11-01T20:20:52.371Z,3.12
2023-11-01T20:23:21.775Z,3.27
2023-11-01T20:25:50.708Z,3.25
2023-11-01T20:28:21.627Z,2.95
2023-11-01T20:30:52.782Z,2.62
2023-11-01T20:33:21.708Z,3.08
2023-11-01T20:35:50.622Z,2.92
2023-11-01T20:38:21.489Z,3.30
2023-11-01T20:40:50.908Z,3.15
2023-11-01T20:43:20.236Z,2.75
2023-11-01T20:45:49.999Z,2.52
2023-11-01T20:48:19.279Z,2.80
2023-11-01T20:50:50.470Z,2.85
2023-11-01T20:53:24.441Z,2.80
2023-11-01T20:55:54.582Z,2.60
2023-11-01T20:58:25.816Z,2.40
2023-11-01T21:00:58.178Z,2.83
2023-11-01T21:03:26.060Z,2.65
2023-11-01T21:05:57.743Z,2.60
2023-11-01T21:08:27.012Z,2.50
2023-11-01T21:10:56.018Z,2.52
2023-11-01T21:13:24.919Z,2.40
2023-11-01T21:15:55.714Z,3.08
2023-11-01T21:18:24.584Z,2.70
2023-11-01T21:20:54.094Z,2.65
2023-11-01T21:23:23.956Z,2.85
2023-11-01T21:25:52.858Z,2.70
2023-11-01T21:28:23.684Z,2.80
2023-11-01T21:30:52.561Z,3.10
2023-11-01T21:33:22.502Z,3.25
2023-11-01T21:35:51.849Z,2.67
2023-11-01T21:38:20.885Z,3.30
2023-11-01T21:40:50.705Z,3.00
2023-11-01T21:43:21.232Z,2.80
2023-11-01T21:45:51.627Z,3.20
2023-11-01T21:48:25.726Z,2.60
2023-11-01T21:51:03.308Z,2.85
2023-11-01T21:56:02.894Z,2.62
2023-11-01T21:58:34.467Z,2.47
2023-11-01T22:01:07.286Z,2.20
2023-11-01T22:03:46.378Z,2.58
2023-11-01T22:06:29.794Z,2.67
2023-11-01T22:09:16.912Z,2.72
2023-11-01T22:11:49.917Z,2.92
2023-11-01T22:14:31.360Z,2.45
2023-11-01T22:17:01.645Z,2.25
2023-11-01T22:19:40.611Z,2.12
2023-11-01T22:22:23.080Z,2.27
2023-11-01T22:24:52.155Z,2.02
2023-11-01T22:27:21.012Z,2.10
2023-11-01T22:29:51.177Z,2.20
2023-11-01T22:32:24.385Z,2.40
2023-11-01T22:34:56.345Z,2.10
2023-11-01T22:37:27.953Z,2.02
2023-11-01T22:39:57.591Z,2.20
2023-11-01T22:42:31.874Z,2.10
2023-11-01T22:45:03.081Z,2.00
2023-11-01T22:47:34.035Z,2.20
2023-11-01T22:50:03.618Z,2.20
2023-11-01T22:52:33.637Z,2.12
2023-11-01T22:55:02.634Z,2.25
2023-11-01T22:57:33.892Z,2.15
2023-11-01T23:00:05.603Z,2.02
2023-11-01T23:02:35.501Z,2.20
2023-11-01T23:05:05.958Z,2.15
2023-11-01T23:07:34.804Z,2.02
2023-11-01T23:10:04.978Z,2.27
2023-11-01T23:12:34.303Z,2.27
2023-11-01T23:15:05.538Z,2.10
2023-11-01T23:17:34.328Z,2.00
2023-11-01T23:20:03.441Z,1.98
2023-11-01T23:22:32.828Z,2.02
2023-11-01T23:25:01.855Z,2.22
2023-11-01T23:27:31.843Z,2.02
2023-11-01T23:30:01.764Z,2.20
2023-11-01T23:32:32.085Z,2.20
2023-11-01T23:35:01.522Z,1.72
2023-11-01T23:37:38.393Z,2.10
2023-11-01T23:40:11.307Z,2.00
2023-11-01T23:42:40.254Z,2.08
2023-11-01T23:45:39.053Z,2.17
2023-11-01T23:48:08.069Z,1.77
2023-11-01T23:50:39.502Z,2.17
2023-11-01T23:53:09.800Z,2.33
2023-11-01T23:55:38.360Z,2.47
2023-11-01T23:58:08.545Z,2.77
